• Join FlightAware (Why Join?)
  • Login
  • US Flag 
05:37AM EST


 

Airport Tracker/Info


-or-


 

Live Flight TrackerFlight Track Log ✈ DAL3643 ✈ 05-May-2013 ✈ KSTL - KCVG

Flight Track Log - Related Links

Times and Time Zones

All times are in EDT time to prevent confusion due to time zone crossing. See the DAL3643 flight status page for this flight to view local times or setup timezone preferences in your user account.

Time Position Orientation Groundspeed Altitude Reporting Facility
EDT Latitude Longitude Course Direction KTS MPH feet Rate Location/Type
11:34AM 38.7169 -90.2592 109° East 177 204 4,200  Level Kansas City Center
11:35AM 38.6956 -90.1733 108° East 228 262 6,700 2,700 Climbing Kansas City Center
11:36AM 38.6478 -90.0139 111° Southeast  Level FlightAware Approximate
11:36AM 38.6711 -90.0858 110° East 256 295 9,800  Level Kansas City Center
11:37AM 38.6180 -89.9012 107° East  Level FlightAware Approximate
11:38AM 38.5912 -89.7873 107° East  Level FlightAware Approximate
11:38AM 38.6444 -89.9856 109° East 290 334 11,200  Level Kansas City Center
11:39AM 38.5639 -89.6736 110° East  Level FlightAware Approximate
11:39AM 38.6139 -89.8736 109° East 328 377 13,100  Level Kansas City Center
11:40AM 38.5332 -89.5662 109° East  Level FlightAware Approximate
11:40AM 38.5833 -89.7592 109° East 338 389 15,000  Level Kansas City Center
11:41AM 38.5450 -89.6150 109° East 345 397 16,900 1,500 Climbing Kansas City Center
11:42AM 38.5131 -89.4964 109° East 354 407 18,100 1,200 Climbing Kansas City Center
11:43AM 38.4789 -89.3739 110° East 364 419 19,500 1,500 Climbing Kansas City Center
11:44AM 38.4439 -89.2464 109° East 356 410 21,200 1,680 Climbing Kansas City Center
11:45AM 38.4158 -89.1308 107° East 344 396 23,000 1,500 Climbing Kansas City Center
11:46AM 38.4114 -89.0011 92° East 342 394 24,300 1,140 Climbing Kansas City Center
11:47AM 38.4047 -88.8817 94° East 339 390 25,400 1,020 Climbing Kansas City Center
11:48AM 38.3978 -88.7622 94° East 338 389 26,500 720 Climbing Kansas City Center
11:49AM 38.3903 -88.6308 94° East 342 394 27,000 240 Climbing Kansas City Center
11:50AM 38.3811 -88.5019 95° East 360 414 27,000  Level Kansas City Center
11:51AM 38.3739 -88.3689 94° East 372 428 27,000  Level Kansas City Center
11:52AM 38.3644 -88.2331 95° East 382 440 27,000 -240 Level Kansas City Center
11:53AM 38.3589 -88.1236 94° East 389 448 26,600 -900 Descending Indianapolis Center
11:54AM 38.3500 -87.9878 95° East 384 442 25,400 -1,140 Descending Indianapolis Center
11:55AM 38.3411 -87.8567 95° East 373 429 24,300 -1,200 Descending Indianapolis Center
11:56AM 38.3303 -87.7011 95° East 365 420 23,000 -660 Descending Indianapolis Center
11:57AM 38.3214 -87.5744 95° East 361 415 23,000  Level Indianapolis Center
11:58AM 38.3131 -87.4467 95° East 360 414 23,000  Level Indianapolis Center
11:59AM 38.3044 -87.3197 95° East 360 414 23,000 -240 Level Indianapolis Center
12:00PM 38.2947 -87.1919 95° East 362 417 22,600 -840 Descending Indianapolis Center
12:01PM 38.2847 -87.0444 95° East 372 428 21,400 -840 Descending Indianapolis Center
12:02PM 38.2731 -86.9008 96° East 393 452 21,000 -240 Descending Indianapolis Center
12:03PM 38.2639 -86.7694 95° East 378 435 21,000  Level Indianapolis Center
12:04PM 38.2797 -86.6450 81° East 363 418 21,000  Level Indianapolis Center
12:05PM 38.3169 -86.5219 69° East 373 429 21,000 -120 Level Indianapolis Center
12:06PM 38.3553 -86.3969 69° East 375 432 20,800 -600 Descending Indianapolis Center
12:07PM 38.3956 -86.2686 68° East 387 445 19,800 -1,140 Descending Indianapolis Center
12:08PM 38.4436 -86.1092 69° East 400 460 18,500 -1,140 Descending Indianapolis Center
12:09PM 38.4817 -85.9886 68° East 369 425 17,500 -780 Descending Indianapolis Center
12:10PM 38.5156 -85.8750 69° East 346 398 16,900 -1,080 Descending Indianapolis Center
12:11PM 38.5525 -85.7583 68° East 352 405 15,300 -1,740 Descending Indianapolis Center
12:12PM 38.5892 -85.6358 69° East 366 421 13,400 -1,980 Descending Indianapolis Center
12:13PM 38.6458 -85.5117 60° Northeast 371 427 11,300 -1,200 Descending Indianapolis Center
12:14PM 38.6981 -85.3989 59° Northeast 369 425 11,000 -120 Descending Indianapolis Center
12:15PM 38.7458 -85.2858 62° Northeast 365 420 11,100  Climbing Indianapolis Center
12:17PM 38.7942 -85.1728 61° Northeast 365 420 11,100  Level Indianapolis Center
12:18PM 38.8422 -85.0636 60° Northeast 354 407 11,100  Level Indianapolis Center
12:19PM 38.8972 -84.9339 61° Northeast 348 400 11,100 -240 Level Indianapolis Center
12:19PM 38.9333 -84.8667 55° Northeast 314 361 10,700 -1,380 Descending Cincinnati TRACON
12:20PM 38.9667 -84.7833 63° Northeast 280 322 8,900 -1,800 Descending Cincinnati TRACON
12:21PM 39.0500 -84.7833 360° North 295 339 7,100 -1,500 Descending Cincinnati TRACON
12:22PM 39.1333 -84.7833 360° North 290 334 5,900 -1,500 Descending Cincinnati TRACON
12:23PM 39.2167 -84.7833 360° North 294 338 4,100 -1,440 Descending Cincinnati TRACON
12:24PM 39.2833 -84.7333 30° Northeast 236 272 3,100 -600 Descending Cincinnati TRACON
12:25PM 39.2500 -84.6833 131° Southeast 189 217 3,000 -60 Descending Cincinnati TRACON
12:26PM 39.2167 -84.6667 159° South 187 215 3,000 -300 Level Cincinnati TRACON
12:27PM 39.1667 -84.6667 180° South 177 204 2,500 -540 Descending Cincinnati TRACON
12:28PM 39.1167 -84.6667 180° South 145 167 2,000 -660 Descending Cincinnati TRACON
12:29PM 39.0833 -84.6667 180° South 127 146 1,200 -840 Descending Cincinnati TRACON